This is the latest recevied weather packets stored in our database for station/object F8BJE-13. If no packets are shown the sender has not sent any weather packets the latest 10 day(s).
| Time | Temp. | Humidity | Pressure | Rain* | Wind** | Luminosity | Snow |
|---|---|---|---|---|---|---|---|
| 1778090255 | 8.89° C | 96% | 1010.8 hPa | 0.76 mm | - | - | - |
| 1778088455 | 8.89° C | 97% | 1010.6 hPa | 0.51 mm | - | - | - |
| 1778086657 | 8.89° C | 97% | 1010.3 hPa | 0.25 mm | - | - | - |
| 1778084857 | 8.89° C | 96% | 1010.4 hPa | 0.76 mm | - | - | - |
| 1778083055 | 8.33° C | 95% | 1010.4 hPa | 1.02 mm | - | - | - |
| 1778081256 | 8.33° C | 94% | 1010.2 hPa | 3.56 mm | - | - | - |
| 1778079455 | 8.89° C | 91% | 1009.9 hPa | 7.87 mm | - | - | - |
| 1778077656 | 9.44° C | 85% | 1010.1 hPa | 5.08 mm | - | - | - |
| 1778075856 | 12.22° C | 82% | 1009.5 hPa | 0.25 mm | - | - | - |
| 1778074055 | 11.67° C | 83% | 1009.8 hPa | 0 mm | - | - | - |
| 1778072255 | 11.67° C | 85% | 1009.5 hPa | 0.25 mm | - | - | - |
| 1778070455 | 11.11° C | 86% | 1009.6 hPa | 0.25 mm | - | - | - |
| 1778068657 | 11.11° C | 88% | 1009.5 hPa | 0.51 mm | - | - | - |
| 1778066857 | 10.56° C | 88% | 1009.5 hPa | 0.76 mm | - | - | - |
| 1778065056 | 10.56° C | 90% | 1009.6 hPa | 0.76 mm | - | - | - |
| 1778063257 | 11.11° C | 90% | 1009.5 hPa | 0.76 mm | - | - | - |
| 1778061456 | 10.56° C | 90% | 1009.4 hPa | 0.51 mm | - | - | - |
| 1778059657 | 10.56° C | 91% | 1009.1 hPa | 1.27 mm | - | - | - |
| 1778057855 | 10° C | 90% | 1009 hPa | 2.29 mm | - | - | - |
| 1778056055 | 10° C | 89% | 1008.6 hPa | 1.27 mm | - | - | - |
| 1778054256 | 10° C | 87% | 1008.3 hPa | 0.25 mm | - | - | - |
| 1778052455 | 10.56° C | 86% | 1008.1 hPa | 0 mm | - | - | - |
| 1778050656 | 10.56° C | 88% | 1007.9 hPa | 0 mm | - | - | - |
| 1778048857 | 10.56° C | 90% | 1007.8 hPa | 0 mm | - | - | - |
| 1778047056 | 10° C | 91% | 1007.5 hPa | 0 mm | - | - | - |
* Rain latest hour (hover to see other rain measurements)
** Current wind speed in m/s (hover to see current wind gust speed)